SBYS

Campo Fontenelle Airport

Pirassununga, Brazil
TAF SBYS 210200Z 2106/2118 18004KT CAVOK TN13/2108Z TX29/2117Z RMK PHG
Issued Valid From Valid To
Apr-21 @ 02:00 UTC
(8 hours ago)
Apr-21 @ 06:00 UTC
(4 hours ago)
Apr-21 @ 18:00 UTC
(in 8 hours)
Apr-21 @ 06:00 to Apr-21 @ 18:00
TAF SBYS 210200Z 2106/2118 18004KT CAVOK TN13/2108Z TX29/2117Z RMK PHG
Wind Visibility Clouds
180° at 4 knots 10,000+ meters
  • No significant clouds
TAF SBYS 210200Z 2106/2118 18004KT CAVOK TN13/2108Z TX29/2117Z RMK PHG
Issued Apr-21 @ 02:00 UTC
(8 hours ago)
Valid From Apr-21 @ 06:00 UTC
(4 hours ago)
Valid To Apr-21 @ 18:00 UTC
(in 8 hours)
Apr-21 @ 06:00 - Apr-21 @ 18:00
Wind Visibility
180° at 4 knots 10,000+ meters
Clouds
  • No significant clouds